sensor_id;sensor_type;location;lat;lon;timestamp;pressure;altitude;pressure_sealevel;temperature;humidity
7407;BME280;3745;56.964;24.128;2023-02-24T00:01:53;100302.91;;;-0.35;100.00
7407;BME280;3745;56.964;24.128;2023-02-24T00:04:24;100279.50;;;-0.40;100.00
7407;BME280;3745;56.964;24.128;2023-02-24T00:06:50;100283.03;;;-0.35;100.00
7407;BME280;3745;56.964;24.128;2023-02-24T00:09:18;100283.03;;;-0.35;100.00
7407;BME280;3745;56.964;24.128;2023-02-24T00:11:48;100251.34;;;-0.57;100.00
7407;BME280;3745;56.964;24.128;2023-02-24T00:14:16;100261.16;;;-0.42;100.00
7407;BME280;3745;56.964;24.128;2023-02-24T00:16:44;100268.50;;;-0.28;100.00
7407;BME280;3745;56.964;24.128;2023-02-24T00:19:12;100243.56;;;-0.47;100.00
7407;BME280;3745;56.964;24.128;2023-02-24T00:21:38;100250.09;;;-0.31;100.00
7407;BME280;3745;56.964;24.128;2023-02-24T00:24:05;100262.25;;;-0.20;100.00
7407;BME280;3745;56.964;24.128;2023-02-24T00:26:31;100255.41;;;-0.24;100.00
7407;BME280;3745;56.964;24.128;2023-02-24T00:28:57;100253.50;;;-0.29;100.00
7407;BME280;3745;56.964;24.128;2023-02-24T00:31:28;100243.06;;;-0.22;100.00
7407;BME280;3745;56.964;24.128;2023-02-24T00:33:56;100206.34;;;-0.45;100.00
7407;BME280;3745;56.964;24.128;2023-02-24T00:36:22;100234.47;;;-0.29;100.00
7407;BME280;3745;56.964;24.128;2023-02-24T00:38:54;100235.75;;;-0.19;100.00
7407;BME280;3745;56.964;24.128;2023-02-24T00:41:22;100230.78;;;-0.19;100.00
7407;BME280;3745;56.964;24.128;2023-02-24T00:43:49;100219.56;;;-0.11;100.00
7407;BME280;3745;56.964;24.128;2023-02-24T00:46:21;100213.00;;;-0.09;100.00
7407;BME280;3745;56.964;24.128;2023-02-24T00:48:50;100213.53;;;-0.16;100.00
7407;BME280;3745;56.964;24.128;2023-02-24T00:51:21;100212.31;;;-0.07;100.00
7407;BME280;3745;56.964;24.128;2023-02-24T00:53:54;100205.69;;;-0.06;100.00
7407;BME280;3745;56.964;24.128;2023-02-24T00:56:24;100184.47;;;-0.17;100.00
7407;BME280;3745;56.964;24.128;2023-02-24T00:58:52;100164.16;;;-0.26;100.00
7407;BME280;3745;56.964;24.128;2023-02-24T01:01:20;100197.41;;;-0.07;100.00
7407;BME280;3745;56.964;24.128;2023-02-24T01:03:49;100193.25;;;-0.06;100.00
7407;BME280;3745;56.964;24.128;2023-02-24T01:06:20;100169.13;;;-0.09;100.00
7407;BME280;3745;56.964;24.128;2023-02-24T01:08:48;100183.22;;;0.10;100.00
7407;BME280;3745;56.964;24.128;2023-02-24T01:11:16;100171.31;;;0.03;100.00
7407;BME280;3745;56.964;24.128;2023-02-24T01:14:04;100174.72;;;0.05;100.00
7407;BME280;3745;56.964;24.128;2023-02-24T01:16:30;100089.78;;;-0.41;100.00
7407;BME280;3745;56.964;24.128;2023-02-24T01:18:56;100148.94;;;0.03;100.00
7407;BME280;3745;56.964;24.128;2023-02-24T01:21:21;100132.03;;;-0.04;100.00
7407;BME280;3745;56.964;24.128;2023-02-24T01:23:48;100149.22;;;0.09;100.00
7407;BME280;3745;56.964;24.128;2023-02-24T01:26:17;100092.84;;;-0.27;100.00
7407;BME280;3745;56.964;24.128;2023-02-24T01:28:44;100134.44;;;-0.06;100.00
7407;BME280;3745;56.964;24.128;2023-02-24T01:31:14;100113.28;;;-0.15;100.00
7407;BME280;3745;56.964;24.128;2023-02-24T01:33:43;100133.34;;;0.07;100.00
7407;BME280;3745;56.964;24.128;2023-02-24T01:36:21;100111.75;;;-0.13;100.00
7407;BME280;3745;56.964;24.128;2023-02-24T01:38:48;100098.50;;;-0.12;100.00
7407;BME280;3745;56.964;24.128;2023-02-24T01:41:16;100122.63;;;0.08;100.00
7407;BME280;3745;56.964;24.128;2023-02-24T01:46:37;100110.97;;;0.07;100.00
7407;BME280;3745;56.964;24.128;2023-02-24T01:49:27;100105.84;;;0.04;100.00
7407;BME280;3745;56.964;24.128;2023-02-24T01:51:59;100102.59;;;0.05;100.00
7407;BME280;3745;56.964;24.128;2023-02-24T01:54:48;100100.88;;;0.04;100.00
7407;BME280;3745;56.964;24.128;2023-02-24T01:57:17;100075.22;;;-0.14;100.00
7407;BME280;3745;56.964;24.128;2023-02-24T01:59:50;100068.53;;;-0.15;100.00
7407;BME280;3745;56.964;24.128;2023-02-24T02:02:18;100068.81;;;-0.09;100.00
7407;BME280;3745;56.964;24.128;2023-02-24T02:07:20;100035.31;;;-0.17;100.00
7407;BME280;3745;56.964;24.128;2023-02-24T02:09:47;100043.88;;;-0.11;100.00
7407;BME280;3745;56.964;24.128;2023-02-24T02:12:13;100071.84;;;0.03;100.00
7407;BME280;3745;56.964;24.128;2023-02-24T02:14:44;100068.50;;;0.03;100.00
7407;BME280;3745;56.964;24.128;2023-02-24T02:17:16;100057.31;;;0.12;100.00
7407;BME280;3745;56.964;24.128;2023-02-24T02:36:31;100019.88;;;0.09;100.00
7407;BME280;3745;56.964;24.128;2023-02-24T02:39:26;100012.59;;;0.14;100.00
7407;BME280;3745;56.964;24.128;2023-02-24T02:44:49;99985.44;;;0.18;100.00
7407;BME280;3745;56.964;24.128;2023-02-24T02:50:34;99986.22;;;0.17;100.00
7407;BME280;3745;56.964;24.128;2023-02-24T02:53:09;99978.50;;;0.11;100.00
7407;BME280;3745;56.964;24.128;2023-02-24T02:55:44;99980.72;;;0.24;100.00
7407;BME280;3745;56.964;24.128;2023-02-24T02:58:15;99979.91;;;0.25;100.00
7407;BME280;3745;56.964;24.128;2023-02-24T03:00:46;99894.03;;;-0.27;100.00
7407;BME280;3745;56.964;24.128;2023-02-24T03:03:23;99975.16;;;0.30;100.00
7407;BME280;3745;56.964;24.128;2023-02-24T03:05:59;99957.16;;;0.16;100.00
7407;BME280;3745;56.964;24.128;2023-02-24T03:08:28;99956.50;;;0.20;100.00
7407;BME280;3745;56.964;24.128;2023-02-24T03:10:59;99947.22;;;0.16;100.00
7407;BME280;3745;56.964;24.128;2023-02-24T03:13:26;99929.44;;;0.07;100.00
7407;BME280;3745;56.964;24.128;2023-02-24T03:15:58;99958.63;;;0.32;100.00
7407;BME280;3745;56.964;24.128;2023-02-24T03:18:30;99942.47;;;0.22;100.00
7407;BME280;3745;56.964;24.128;2023-02-24T03:21:24;99949.41;;;0.29;100.00
7407;BME280;3745;56.964;24.128;2023-02-24T03:23:53;99907.03;;;0.07;100.00
7407;BME280;3745;56.964;24.128;2023-02-24T03:26:39;99941.16;;;0.30;100.00
7407;BME280;3745;56.964;24.128;2023-02-24T03:29:23;99929.63;;;0.32;100.00
7407;BME280;3745;56.964;24.128;2023-02-24T03:32:11;99926.47;;;0.36;100.00
7407;BME280;3745;56.964;24.128;2023-02-24T03:35:23;99920.53;;;0.33;100.00
7407;BME280;3745;56.964;24.128;2023-02-24T03:37:29;99917.13;;;0.31;100.00
7407;BME280;3745;56.964;24.128;2023-02-24T03:39:58;99912.63;;;0.22;100.00
7407;BME280;3745;56.964;24.128;2023-02-24T03:42:27;99906.22;;;0.27;100.00
7407;BME280;3745;56.964;24.128;2023-02-24T03:44:55;99887.63;;;0.19;100.00
7407;BME280;3745;56.964;24.128;2023-02-24T03:47:23;99899.66;;;0.29;100.00
7407;BME280;3745;56.964;24.128;2023-02-24T03:49:49;99904.75;;;0.32;100.00
7407;BME280;3745;56.964;24.128;2023-02-24T04:01:13;99879.88;;;0.32;100.00
7407;BME280;3745;56.964;24.128;2023-02-24T04:03:59;99881.69;;;0.36;100.00
7407;BME280;3745;56.964;24.128;2023-02-24T04:09:48;99831.78;;;0.11;100.00
7407;BME280;3745;56.964;24.128;2023-02-24T04:12:48;99870.16;;;0.38;100.00
7407;BME280;3745;56.964;24.128;2023-02-24T04:15:30;99846.63;;;0.30;100.00
7407;BME280;3745;56.964;24.128;2023-02-24T04:18:01;99858.50;;;0.37;100.00
7407;BME280;3745;56.964;24.128;2023-02-24T04:20:31;99850.03;;;0.32;100.00
7407;BME280;3745;56.964;24.128;2023-02-24T04:23:03;99829.66;;;0.20;100.00
7407;BME280;3745;56.964;24.128;2023-02-24T04:25:33;99848.31;;;0.31;100.00
7407;BME280;3745;56.964;24.128;2023-02-24T04:27:59;99845.28;;;0.38;100.00
7407;BME280;3745;56.964;24.128;2023-02-24T04:30:30;99841.50;;;0.48;100.00
7407;BME280;3745;56.964;24.128;2023-02-24T04:32:58;99845.47;;;0.43;100.00
7407;BME280;3745;56.964;24.128;2023-02-24T04:35:24;99822.53;;;0.29;100.00
7407;BME280;3745;56.964;24.128;2023-02-24T04:37:51;99837.16;;;0.42;100.00
7407;BME280;3745;56.964;24.128;2023-02-24T04:40:18;99782.06;;;0.11;100.00
7407;BME280;3745;56.964;24.128;2023-02-24T04:42:47;99837.03;;;0.39;100.00
7407;BME280;3745;56.964;24.128;2023-02-24T04:45:19;99827.47;;;0.50;100.00
7407;BME280;3745;56.964;24.128;2023-02-24T04:47:47;99830.81;;;0.50;100.00
7407;BME280;3745;56.964;24.128;2023-02-24T04:50:22;99839.41;;;0.59;100.00
7407;BME280;3745;56.964;24.128;2023-02-24T04:52:50;99830.91;;;0.53;100.00
7407;BME280;3745;56.964;24.128;2023-02-24T04:55:17;99808.25;;;0.46;100.00
7407;BME280;3745;56.964;24.128;2023-02-24T04:57:42;99817.94;;;0.61;100.00
7407;BME280;3745;56.964;24.128;2023-02-24T05:00:13;99717.84;;;0.01;100.00
7407;BME280;3745;56.964;24.128;2023-02-24T05:02:49;99817.69;;;0.54;100.00
7407;BME280;3745;56.964;24.128;2023-02-24T05:05:17;99816.88;;;0.55;100.00
7407;BME280;3745;56.964;24.128;2023-02-24T05:07:51;99816.00;;;0.53;100.00
7407;BME280;3745;56.964;24.128;2023-02-24T05:10:17;99814.28;;;0.52;100.00
7407;BME280;3745;56.964;24.128;2023-02-24T05:12:43;99803.22;;;0.44;100.00
7407;BME280;3745;56.964;24.128;2023-02-24T05:15:10;99586.94;;;-0.86;100.00
7407;BME280;3745;56.964;24.128;2023-02-24T05:17:36;99793.81;;;0.37;100.00
7407;BME280;3745;56.964;24.128;2023-02-24T05:20:04;99800.72;;;0.44;100.00
7407;BME280;3745;56.964;24.128;2023-02-24T05:22:48;99802.25;;;0.41;100.00
7407;BME280;3745;56.964;24.128;2023-02-24T05:25:19;99801.47;;;0.42;100.00
7407;BME280;3745;56.964;24.128;2023-02-24T05:27:45;99759.28;;;0.23;100.00
7407;BME280;3745;56.964;24.128;2023-02-24T05:30:12;99792.59;;;0.48;100.00
7407;BME280;3745;56.964;24.128;2023-02-24T05:32:39;99685.72;;;-0.15;100.00
7407;BME280;3745;56.964;24.128;2023-02-24T05:35:05;99786.13;;;0.53;100.00
7407;BME280;3745;56.964;24.128;2023-02-24T05:37:31;99788.69;;;0.55;100.00
7407;BME280;3745;56.964;24.128;2023-02-24T05:39:58;99621.59;;;-0.46;100.00
7407;BME280;3745;56.964;24.128;2023-02-24T05:42:28;99740.69;;;0.35;100.00
7407;BME280;3745;56.964;24.128;2023-02-24T05:44:59;99749.13;;;0.40;100.00
7407;BME280;3745;56.964;24.128;2023-02-24T05:47:25;99775.66;;;0.62;100.00
7407;BME280;3745;56.964;24.128;2023-02-24T05:49:51;99769.72;;;0.59;100.00
7407;BME280;3745;56.964;24.128;2023-02-24T05:52:21;99725.53;;;0.29;100.00
7407;BME280;3745;56.964;24.128;2023-02-24T05:54:47;99726.41;;;0.31;100.00
7407;BME280;3745;56.964;24.128;2023-02-24T05:57:19;99706.25;;;0.24;100.00
7407;BME280;3745;56.964;24.128;2023-02-24T05:59:48;99718.06;;;0.29;100.00
7407;BME280;3745;56.964;24.128;2023-02-24T06:02:17;99714.72;;;0.29;100.00
7407;BME280;3745;56.964;24.128;2023-02-24T06:04:51;99689.50;;;0.20;100.00
7407;BME280;3745;56.964;24.128;2023-02-24T06:07:28;99739.84;;;0.59;100.00
7407;BME280;3745;56.964;24.128;2023-02-24T06:09:59;99760.44;;;0.77;100.00
7407;BME280;3745;56.964;24.128;2023-02-24T06:12:30;99743.69;;;0.73;100.00
7407;BME280;3745;56.964;24.128;2023-02-24T06:14:56;99745.19;;;0.68;100.00
7407;BME280;3745;56.964;24.128;2023-02-24T06:17:25;99768.91;;;0.82;100.00
7407;BME280;3745;56.964;24.128;2023-02-24T06:19:52;99724.56;;;0.72;100.00
7407;BME280;3745;56.964;24.128;2023-02-24T06:22:20;99742.19;;;0.78;100.00
7407;BME280;3745;56.964;24.128;2023-02-24T06:24:48;99621.78;;;0.03;100.00
7407;BME280;3745;56.964;24.128;2023-02-24T06:27:17;99738.84;;;0.77;100.00
7407;BME280;3745;56.964;24.128;2023-02-24T06:29:51;99753.75;;;0.76;100.00
7407;BME280;3745;56.964;24.128;2023-02-24T06:32:20;99761.53;;;0.85;100.00
7407;BME280;3745;56.964;24.128;2023-02-24T06:34:45;99744.22;;;0.88;100.00
7407;BME280;3745;56.964;24.128;2023-02-24T06:37:12;99759.25;;;0.91;100.00
7407;BME280;3745;56.964;24.128;2023-02-24T06:39:39;99652.00;;;0.37;100.00
7407;BME280;3745;56.964;24.128;2023-02-24T06:42:05;99707.25;;;0.75;100.00
7407;BME280;3745;56.964;24.128;2023-02-24T06:44:35;99706.59;;;0.80;100.00
7407;BME280;3745;56.964;24.128;2023-02-24T06:47:01;99730.94;;;1.13;100.00
7407;BME280;3745;56.964;24.128;2023-02-24T06:49:27;99737.00;;;1.19;100.00
7407;BME280;3745;56.964;24.128;2023-02-24T06:51:54;99732.88;;;1.20;100.00
7407;BME280;3745;56.964;24.128;2023-02-24T06:54:21;99725.03;;;1.09;100.00
7407;BME280;3745;56.964;24.128;2023-02-24T06:56:50;99708.16;;;1.02;100.00
7407;BME280;3745;56.964;24.128;2023-02-24T06:59:16;99718.22;;;1.05;100.00
7407;BME280;3745;56.964;24.128;2023-02-24T07:01:53;99679.47;;;0.88;100.00
7407;BME280;3745;56.964;24.128;2023-02-24T07:04:19;99681.50;;;0.98;100.00
7407;BME280;3745;56.964;24.128;2023-02-24T07:06:47;99714.38;;;1.13;100.00
7407;BME280;3745;56.964;24.128;2023-02-24T07:09:18;99713.06;;;1.24;100.00
7407;BME280;3745;56.964;24.128;2023-02-24T07:11:45;99705.03;;;1.33;100.00
7407;BME280;3745;56.964;24.128;2023-02-24T07:14:13;99701.19;;;1.42;100.00
7407;BME280;3745;56.964;24.128;2023-02-24T07:16:39;99706.56;;;1.54;100.00
7407;BME280;3745;56.964;24.128;2023-02-24T07:19:11;99703.47;;;1.61;100.00
7407;BME280;3745;56.964;24.128;2023-02-24T07:21:40;99695.56;;;1.75;100.00
7407;BME280;3745;56.964;24.128;2023-02-24T07:24:12;99686.03;;;1.61;100.00
7407;BME280;3745;56.964;24.128;2023-02-24T07:26:39;99674.97;;;1.53;100.00
7407;BME280;3745;56.964;24.128;2023-02-24T07:29:11;99677.03;;;1.67;100.00
7407;BME280;3745;56.964;24.128;2023-02-24T07:31:37;99638.19;;;1.46;100.00
7407;BME280;3745;56.964;24.128;2023-02-24T07:34:04;99676.94;;;1.63;100.00
7407;BME280;3745;56.964;24.128;2023-02-24T07:36:31;99654.84;;;1.47;100.00
7407;BME280;3745;56.964;24.128;2023-02-24T07:39:04;99678.81;;;1.71;100.00
7407;BME280;3745;56.964;24.128;2023-02-24T07:41:32;99636.59;;;1.48;100.00
7407;BME280;3745;56.964;24.128;2023-02-24T07:43:58;99682.28;;;1.76;100.00
7407;BME280;3745;56.964;24.128;2023-02-24T07:46:28;99630.03;;;1.50;100.00
7407;BME280;3745;56.964;24.128;2023-02-24T07:48:56;99640.03;;;1.52;100.00
7407;BME280;3745;56.964;24.128;2023-02-24T07:51:25;99674.19;;;1.83;100.00
7407;BME280;3745;56.964;24.128;2023-02-24T07:53:56;99639.81;;;1.44;100.00
7407;BME280;3745;56.964;24.128;2023-02-24T07:56:24;99657.84;;;1.64;100.00
7407;BME280;3745;56.964;24.128;2023-02-24T07:59:13;99681.56;;;1.78;100.00
7407;BME280;3745;56.964;24.128;2023-02-24T08:01:43;99680.56;;;1.73;100.00
7407;BME280;3745;56.964;24.128;2023-02-24T08:04:16;99673.06;;;1.73;100.00
7407;BME280;3745;56.964;24.128;2023-02-24T08:06:43;99680.81;;;1.81;100.00
7407;BME280;3745;56.964;24.128;2023-02-24T08:09:14;99679.16;;;1.81;100.00
7407;BME280;3745;56.964;24.128;2023-02-24T08:11:53;99674.38;;;1.89;100.00
7407;BME280;3745;56.964;24.128;2023-02-24T08:14:24;99674.47;;;1.92;100.00
7407;BME280;3745;56.964;24.128;2023-02-24T08:16:55;99673.06;;;2.00;100.00
7407;BME280;3745;56.964;24.128;2023-02-24T08:19:26;99661.03;;;1.87;100.00
7407;BME280;3745;56.964;24.128;2023-02-24T08:21:58;99650.13;;;2.13;100.00
7407;BME280;3745;56.964;24.128;2023-02-24T08:24:49;99649.75;;;2.28;100.00
7407;BME280;3745;56.964;24.128;2023-02-24T08:27:17;99665.38;;;2.22;100.00
7407;BME280;3745;56.964;24.128;2023-02-24T08:29:48;99660.75;;;2.06;100.00
7407;BME280;3745;56.964;24.128;2023-02-24T08:32:33;99655.03;;;2.10;100.00
7407;BME280;3745;56.964;24.128;2023-02-24T08:35:09;99657.00;;;1.92;100.00
7407;BME280;3745;56.964;24.128;2023-02-24T08:37:43;99654.06;;;2.05;100.00
7407;BME280;3745;56.964;24.128;2023-02-24T08:43:07;99626.63;;;2.05;100.00
7407;BME280;3745;56.964;24.128;2023-02-24T08:48:58;99591.03;;;1.81;100.00
7407;BME280;3745;56.964;24.128;2023-02-24T08:51:32;99633.31;;;2.06;100.00
7407;BME280;3745;56.964;24.128;2023-02-24T08:54:06;99620.88;;;2.07;100.00
7407;BME280;3745;56.964;24.128;2023-02-24T08:56:36;99646.47;;;2.30;100.00
7407;BME280;3745;56.964;24.128;2023-02-24T08:59:09;99641.06;;;2.46;100.00
7407;BME280;3745;56.964;24.128;2023-02-24T09:01:56;99606.31;;;2.23;100.00
7407;BME280;3745;56.964;24.128;2023-02-24T09:04:56;99640.50;;;2.25;100.00
7407;BME280;3745;56.964;24.128;2023-02-24T09:07:26;99644.31;;;2.42;100.00
7407;BME280;3745;56.964;24.128;2023-02-24T09:09:52;99638.25;;;2.65;100.00
7407;BME280;3745;56.964;24.128;2023-02-24T09:12:22;99615.69;;;2.61;100.00
7407;BME280;3745;56.964;24.128;2023-02-24T09:14:52;99635.66;;;2.61;100.00
7407;BME280;3745;56.964;24.128;2023-02-24T09:17:25;99557.97;;;2.50;100.00
7407;BME280;3745;56.964;24.128;2023-02-24T09:20:20;99595.25;;;2.76;100.00
7407;BME280;3745;56.964;24.128;2023-02-24T09:23:05;99622.22;;;2.89;100.00
7407;BME280;3745;56.964;24.128;2023-02-24T09:25:36;99619.13;;;2.99;100.00
7407;BME280;3745;56.964;24.128;2023-02-24T09:28:14;99614.75;;;2.90;100.00
7407;BME280;3745;56.964;24.128;2023-02-24T09:30:45;99603.75;;;2.84;100.00
7407;BME280;3745;56.964;24.128;2023-02-24T09:33:27;99609.34;;;3.08;100.00
7407;BME280;3745;56.964;24.128;2023-02-24T09:36:03;99605.81;;;3.00;100.00
7407;BME280;3745;56.964;24.128;2023-02-24T09:38:39;99620.59;;;2.91;100.00
7407;BME280;3745;56.964;24.128;2023-02-24T09:44:55;99622.06;;;2.83;100.00
7407;BME280;3745;56.964;24.128;2023-02-24T09:52:39;99628.22;;;2.95;100.00
7407;BME280;3745;56.964;24.128;2023-02-24T10:04:42;99616.53;;;2.61;100.00
7407;BME280;3745;56.964;24.128;2023-02-24T10:07:37;99619.97;;;2.66;100.00
7407;BME280;3745;56.964;24.128;2023-02-24T10:12:57;99609.13;;;2.33;100.00
7407;BME280;3745;56.964;24.128;2023-02-24T10:15:29;99610.72;;;2.31;100.00
7407;BME280;3745;56.964;24.128;2023-02-24T10:18:22;99609.38;;;2.42;100.00
7407;BME280;3745;56.964;24.128;2023-02-24T10:20:52;99577.88;;;2.16;100.00
7407;BME280;3745;56.964;24.128;2023-02-24T10:23:28;99606.53;;;2.61;100.00
7407;BME280;3745;56.964;24.128;2023-02-24T10:28:52;99600.78;;;2.64;100.00
7407;BME280;3745;56.964;24.128;2023-02-24T10:31:37;99590.16;;;2.72;100.00
7407;BME280;3745;56.964;24.128;2023-02-24T10:34:09;99596.72;;;2.67;100.00
7407;BME280;3745;56.964;24.128;2023-02-24T10:36:36;99593.63;;;2.78;100.00
7407;BME280;3745;56.964;24.128;2023-02-24T10:39:23;99585.47;;;2.85;100.00
7407;BME280;3745;56.964;24.128;2023-02-24T10:41:59;99576.72;;;2.67;100.00
7407;BME280;3745;56.964;24.128;2023-02-24T10:44:41;99556.94;;;2.42;100.00
7407;BME280;3745;56.964;24.128;2023-02-24T10:47:17;99556.19;;;2.46;100.00
7407;BME280;3745;56.964;24.128;2023-02-24T10:49:50;99562.69;;;2.72;100.00
7407;BME280;3745;56.964;24.128;2023-02-24T10:52:38;99575.09;;;2.69;100.00
7407;BME280;3745;56.964;24.128;2023-02-24T11:00:55;99561.34;;;2.52;100.00
7407;BME280;3745;56.964;24.128;2023-02-24T11:03:40;99567.66;;;2.38;100.00
7407;BME280;3745;56.964;24.128;2023-02-24T11:06:29;99565.16;;;2.38;100.00
7407;BME280;3745;56.964;24.128;2023-02-24T11:12:20;99566.53;;;2.58;100.00
7407;BME280;3745;56.964;24.128;2023-02-24T11:15:16;99488.03;;;2.14;100.00
7407;BME280;3745;56.964;24.128;2023-02-24T11:18:01;99563.19;;;2.59;100.00
7407;BME280;3745;56.964;24.128;2023-02-24T11:23:33;99571.41;;;2.55;100.00
7407;BME280;3745;56.964;24.128;2023-02-24T11:26:20;99550.09;;;2.35;100.00
7407;BME280;3745;56.964;24.128;2023-02-24T11:31:53;99563.28;;;2.62;100.00
7407;BME280;3745;56.964;24.128;2023-02-24T11:34:43;99559.53;;;2.80;100.00
7407;BME280;3745;56.964;24.128;2023-02-24T11:40:16;99497.41;;;2.57;100.00
7407;BME280;3745;56.964;24.128;2023-02-24T11:42:54;99542.41;;;2.60;100.00
7407;BME280;3745;56.964;24.128;2023-02-24T11:47:58;99531.50;;;2.91;100.00
7407;BME280;3745;56.964;24.128;2023-02-24T11:50:45;99526.22;;;3.15;100.00
7407;BME280;3745;56.964;24.128;2023-02-24T11:53:42;99514.38;;;3.08;100.00
7407;BME280;3745;56.964;24.128;2023-02-24T11:59:13;99512.88;;;3.53;100.00
7407;BME280;3745;56.964;24.128;2023-02-24T12:07:38;99481.97;;;3.51;100.00
7407;BME280;3745;56.964;24.128;2023-02-24T12:10:22;99495.44;;;3.56;100.00
7407;BME280;3745;56.964;24.128;2023-02-24T12:15:22;99466.69;;;3.36;100.00
7407;BME280;3745;56.964;24.128;2023-02-24T12:20:44;99470.63;;;3.25;100.00
7407;BME280;3745;56.964;24.128;2023-02-24T12:23:13;99494.81;;;3.26;100.00
7407;BME280;3745;56.964;24.128;2023-02-24T12:26:19;99457.53;;;2.98;100.00
7407;BME280;3745;56.964;24.128;2023-02-24T12:32:28;99493.78;;;3.16;100.00
7407;BME280;3745;56.964;24.128;2023-02-24T12:40:14;99494.25;;;3.39;100.00
7407;BME280;3745;56.964;24.128;2023-02-24T12:43:17;99457.88;;;3.13;100.00
7407;BME280;3745;56.964;24.128;2023-02-24T12:46:02;99489.66;;;3.20;100.00
7407;BME280;3745;56.964;24.128;2023-02-24T12:53:44;99481.69;;;3.36;100.00
7407;BME280;3745;56.964;24.128;2023-02-24T12:59:02;99440.88;;;2.97;100.00
7407;BME280;3745;56.964;24.128;2023-02-24T13:09:53;99427.03;;;3.54;100.00
7407;BME280;3745;56.964;24.128;2023-02-24T13:12:25;99462.75;;;3.91;100.00
7407;BME280;3745;56.964;24.128;2023-02-24T13:14:52;99431.19;;;3.99;100.00
7407;BME280;3745;56.964;24.128;2023-02-24T13:17:21;99443.16;;;4.15;100.00
7407;BME280;3745;56.964;24.128;2023-02-24T13:19:49;99428.44;;;3.40;100.00
7407;BME280;3745;56.964;24.128;2023-02-24T13:22:31;99452.03;;;3.12;100.00
7407;BME280;3745;56.964;24.128;2023-02-24T13:25:16;99383.50;;;2.62;100.00
7407;BME280;3745;56.964;24.128;2023-02-24T13:27:42;99399.78;;;2.83;100.00
7407;BME280;3745;56.964;24.128;2023-02-24T13:32:44;99421.69;;;3.36;100.00
7407;BME280;3745;56.964;24.128;2023-02-24T13:37:46;99452.59;;;3.84;100.00
7407;BME280;3745;56.964;24.128;2023-02-24T13:43:01;99449.47;;;3.11;100.00
7407;BME280;3745;56.964;24.128;2023-02-24T13:45:36;99435.06;;;2.98;100.00
7407;BME280;3745;56.964;24.128;2023-02-24T13:48:43;99462.81;;;3.10;100.00
7407;BME280;3745;56.964;24.128;2023-02-24T14:02:46;99455.72;;;2.91;100.00
7407;BME280;3745;56.964;24.128;2023-02-24T14:05:24;99446.78;;;3.00;100.00
7407;BME280;3745;56.964;24.128;2023-02-24T14:07:51;99452.28;;;2.86;100.00
7407;BME280;3745;56.964;24.128;2023-02-24T14:10:20;99451.31;;;2.81;100.00
7407;BME280;3745;56.964;24.128;2023-02-24T14:12:50;99426.84;;;2.64;100.00
7407;BME280;3745;56.964;24.128;2023-02-24T14:15:24;99388.06;;;2.44;100.00
7407;BME280;3745;56.964;24.128;2023-02-24T14:17:59;99391.59;;;2.52;100.00
7407;BME280;3745;56.964;24.128;2023-02-24T14:20:29;99450.91;;;3.00;100.00
7407;BME280;3745;56.964;24.128;2023-02-24T14:22:57;99445.91;;;3.00;100.00
7407;BME280;3745;56.964;24.128;2023-02-24T14:25:26;99440.53;;;2.82;100.00
7407;BME280;3745;56.964;24.128;2023-02-24T14:27:54;99432.72;;;2.68;100.00
7407;BME280;3745;56.964;24.128;2023-02-24T14:30:36;99418.59;;;2.68;100.00
7407;BME280;3745;56.964;24.128;2023-02-24T14:33:04;99422.38;;;2.89;100.00
7407;BME280;3745;56.964;24.128;2023-02-24T14:36:03;99432.44;;;2.92;100.00
7407;BME280;3745;56.964;24.128;2023-02-24T14:38:33;99425.75;;;2.91;100.00
7407;BME280;3745;56.964;24.128;2023-02-24T14:41:01;99396.31;;;2.78;100.00
7407;BME280;3745;56.964;24.128;2023-02-24T14:43:27;99423.53;;;3.04;100.00
7407;BME280;3745;56.964;24.128;2023-02-24T14:45:54;99399.25;;;2.99;100.00
7407;BME280;3745;56.964;24.128;2023-02-24T14:48:27;99420.25;;;3.07;100.00
7407;BME280;3745;56.964;24.128;2023-02-24T14:50:57;99414.31;;;3.02;100.00
7407;BME280;3745;56.964;24.128;2023-02-24T14:53:26;99400.88;;;2.97;100.00
7407;BME280;3745;56.964;24.128;2023-02-24T14:55:55;99410.28;;;3.07;100.00
7407;BME280;3745;56.964;24.128;2023-02-24T14:58:54;99352.53;;;2.54;100.00
7407;BME280;3745;56.964;24.128;2023-02-24T15:01:27;99398.94;;;2.84;100.00
7407;BME280;3745;56.964;24.128;2023-02-24T15:03:58;99387.97;;;2.77;100.00
7407;BME280;3745;56.964;24.128;2023-02-24T15:06:27;99416.59;;;2.91;100.00
7407;BME280;3745;56.964;24.128;2023-02-24T15:08:56;99404.91;;;2.89;100.00
7407;BME280;3745;56.964;24.128;2023-02-24T15:11:26;99403.81;;;2.78;100.00
7407;BME280;3745;56.964;24.128;2023-02-24T15:14:05;99413.78;;;2.78;100.00
7407;BME280;3745;56.964;24.128;2023-02-24T15:19:01;99379.34;;;2.63;100.00
7407;BME280;3745;56.964;24.128;2023-02-24T15:21:38;99383.09;;;2.44;100.00
7407;BME280;3745;56.964;24.128;2023-02-24T15:24:21;99411.00;;;2.64;100.00
7407;BME280;3745;56.964;24.128;2023-02-24T15:27:01;99273.22;;;1.68;100.00
7407;BME280;3745;56.964;24.128;2023-02-24T15:29:29;99411.63;;;2.55;100.00
7407;BME280;3745;56.964;24.128;2023-02-24T15:31:58;99411.34;;;2.43;100.00
7407;BME280;3745;56.964;24.128;2023-02-24T15:34:29;99418.03;;;2.44;100.00
7407;BME280;3745;56.964;24.128;2023-02-24T15:37:00;99415.00;;;2.57;100.00
7407;BME280;3745;56.964;24.128;2023-02-24T15:39:29;99362.91;;;2.35;100.00
7407;BME280;3745;56.964;24.128;2023-02-24T15:54:39;99412.13;;;2.77;100.00
7407;BME280;3745;56.964;24.128;2023-02-24T15:57:09;99405.50;;;2.79;100.00
7407;BME280;3745;56.964;24.128;2023-02-24T15:59:37;99265.66;;;2.01;100.00
7407;BME280;3745;56.964;24.128;2023-02-24T16:02:15;99400.69;;;2.88;100.00
7407;BME280;3745;56.964;24.128;2023-02-24T16:04:42;99405.44;;;2.76;100.00
7407;BME280;3745;56.964;24.128;2023-02-24T16:07:20;99361.56;;;2.49;100.00
7407;BME280;3745;56.964;24.128;2023-02-24T16:09:48;99367.38;;;2.48;100.00
7407;BME280;3745;56.964;24.128;2023-02-24T16:12:21;99398.66;;;2.71;100.00
7407;BME280;3745;56.964;24.128;2023-02-24T16:14:49;99406.28;;;2.78;100.00
7407;BME280;3745;56.964;24.128;2023-02-24T16:17:37;99397.13;;;2.77;100.00
7407;BME280;3745;56.964;24.128;2023-02-24T16:20:15;99383.75;;;2.74;100.00
7407;BME280;3745;56.964;24.128;2023-02-24T16:22:40;99325.69;;;2.44;100.00